sensor_id;sensor_type;location;lat;lon;timestamp;P1;P2;P0
78678;PMS5003;67994;59.334;13.528;2023-03-14T00:00:00;3.0;0.0;
78678;PMS5003;67994;59.334;13.528;2023-03-14T00:01:00;3.0;0.0;
78678;PMS5003;67994;59.334;13.528;2023-03-14T00:02:00;3.0;0.0;
78678;PMS5003;67994;59.334;13.528;2023-03-14T00:03:00;3.0;1.0;
78678;PMS5003;67994;59.334;13.528;2023-03-14T00:04:00;3.0;1.0;
78678;PMS5003;67994;59.334;13.528;2023-03-14T00:05:00;3.0;1.0;
78678;PMS5003;67994;59.334;13.528;2023-03-14T00:06:01;3.0;1.0;
78678;PMS5003;67994;59.334;13.528;2023-03-14T00:07:00;3.0;1.0;
78678;PMS5003;67994;59.334;13.528;2023-03-14T00:08:00;0.0;0.0;
78678;PMS5003;67994;59.334;13.528;2023-03-14T00:09:00;0.0;0.0;
78678;PMS5003;67994;59.334;13.528;2023-03-14T00:10:00;0.0;0.0;
78678;PMS5003;67994;59.334;13.528;2023-03-14T00:11:03;0.0;0.0;
78678;PMS5003;67994;59.334;13.528;2023-03-14T00:12:00;0.0;0.0;
78678;PMS5003;67994;59.334;13.528;2023-03-14T00:13:00;3.9;0.0;
78678;PMS5003;67994;59.334;13.528;2023-03-14T00:14:00;3.9;0.0;
78678;PMS5003;67994;59.334;13.528;2023-03-14T00:15:00;3.9;0.0;
78678;PMS5003;67994;59.334;13.528;2023-03-14T00:16:01;3.9;0.0;
78678;PMS5003;67994;59.334;13.528;2023-03-14T00:17:00;3.9;0.0;
78678;PMS5003;67994;59.334;13.528;2023-03-14T00:18:00;0.0;0.0;
78678;PMS5003;67994;59.334;13.528;2023-03-14T00:19:00;0.0;0.0;
78678;PMS5003;67994;59.334;13.528;2023-03-14T00:20:00;0.0;0.0;
78678;PMS5003;67994;59.334;13.528;2023-03-14T00:21:00;0.0;0.0;
78678;PMS5003;67994;59.334;13.528;2023-03-14T00:22:00;0.0;0.0;
78678;PMS5003;67994;59.334;13.528;2023-03-14T00:23:00;0.0;0.0;
78678;PMS5003;67994;59.334;13.528;2023-03-14T00:24:00;0.0;0.0;
78678;PMS5003;67994;59.334;13.528;2023-03-14T00:25:00;0.0;0.0;
78678;PMS5003;67994;59.334;13.528;2023-03-14T00:26:00;0.0;0.0;
78678;PMS5003;67994;59.334;13.528;2023-03-14T00:27:00;0.0;0.0;
78678;PMS5003;67994;59.334;13.528;2023-03-14T00:28:00;0.0;0.0;
78678;PMS5003;67994;59.334;13.528;2023-03-14T00:29:00;0.0;0.0;
78678;PMS5003;67994;59.334;13.528;2023-03-14T00:30:00;0.0;0.0;
78678;PMS5003;67994;59.334;13.528;2023-03-14T00:31:01;0.0;0.0;
78678;PMS5003;67994;59.334;13.528;2023-03-14T00:32:00;0.0;0.0;
78678;PMS5003;67994;59.334;13.528;2023-03-14T00:33:00;0.6;0.6;
78678;PMS5003;67994;59.334;13.528;2023-03-14T00:34:00;0.6;0.6;
78678;PMS5003;67994;59.334;13.528;2023-03-14T00:35:00;0.6;0.6;
78678;PMS5003;67994;59.334;13.528;2023-03-14T00:36:00;0.6;0.6;
78678;PMS5003;67994;59.334;13.528;2023-03-14T00:37:00;0.6;0.6;
78678;PMS5003;67994;59.334;13.528;2023-03-14T00:38:00;1.0;1.0;
78678;PMS5003;67994;59.334;13.528;2023-03-14T00:39:00;1.0;1.0;
78678;PMS5003;67994;59.334;13.528;2023-03-14T00:40:00;1.0;1.0;
78678;PMS5003;67994;59.334;13.528;2023-03-14T00:41:02;1.0;1.0;
78678;PMS5003;67994;59.334;13.528;2023-03-14T00:42:00;1.0;1.0;
78678;PMS5003;67994;59.334;13.528;2023-03-14T00:43:00;0.0;0.0;
78678;PMS5003;67994;59.334;13.528;2023-03-14T00:44:00;0.0;0.0;
78678;PMS5003;67994;59.334;13.528;2023-03-14T00:45:00;0.0;0.0;
78678;PMS5003;67994;59.334;13.528;2023-03-14T00:46:00;0.0;0.0;
78678;PMS5003;67994;59.334;13.528;2023-03-14T00:47:00;0.0;0.0;
78678;PMS5003;67994;59.334;13.528;2023-03-14T00:48:00;0.0;0.0;
78678;PMS5003;67994;59.334;13.528;2023-03-14T00:49:00;0.0;0.0;
78678;PMS5003;67994;59.334;13.528;2023-03-14T00:50:00;0.0;0.0;
78678;PMS5003;67994;59.334;13.528;2023-03-14T00:51:00;0.0;0.0;
78678;PMS5003;67994;59.334;13.528;2023-03-14T00:52:00;0.0;0.0;
78678;PMS5003;67994;59.334;13.528;2023-03-14T00:53:00;0.0;0.0;
78678;PMS5003;67994;59.334;13.528;2023-03-14T00:54:00;0.0;0.0;
78678;PMS5003;67994;59.334;13.528;2023-03-14T00:55:00;0.0;0.0;
78678;PMS5003;67994;59.334;13.528;2023-03-14T00:56:02;0.0;0.0;
78678;PMS5003;67994;59.334;13.528;2023-03-14T00:57:00;0.0;0.0;
78678;PMS5003;67994;59.334;13.528;2023-03-14T00:58:00;0.1;0.1;
78678;PMS5003;67994;59.334;13.528;2023-03-14T00:59:00;0.1;0.1;
78678;PMS5003;67994;59.334;13.528;2023-03-14T01:00:00;0.1;0.1;
78678;PMS5003;67994;59.334;13.528;2023-03-14T01:01:04;0.1;0.1;
78678;PMS5003;67994;59.334;13.528;2023-03-14T01:02:00;0.1;0.1;
78678;PMS5003;67994;59.334;13.528;2023-03-14T01:03:00;3.0;0.1;
78678;PMS5003;67994;59.334;13.528;2023-03-14T01:04:00;3.0;0.1;
78678;PMS5003;67994;59.334;13.528;2023-03-14T01:05:00;3.0;0.1;
78678;PMS5003;67994;59.334;13.528;2023-03-14T01:06:08;3.0;0.1;
78678;PMS5003;67994;59.334;13.528;2023-03-14T01:07:00;3.0;0.1;
78678;PMS5003;67994;59.334;13.528;2023-03-14T01:08:00;0.0;0.0;
78678;PMS5003;67994;59.334;13.528;2023-03-14T01:09:00;0.0;0.0;
78678;PMS5003;67994;59.334;13.528;2023-03-14T01:10:00;0.0;0.0;
78678;PMS5003;67994;59.334;13.528;2023-03-14T01:11:04;0.0;0.0;
78678;PMS5003;67994;59.334;13.528;2023-03-14T01:12:00;0.0;0.0;
78678;PMS5003;67994;59.334;13.528;2023-03-14T01:13:00;0.0;0.0;
78678;PMS5003;67994;59.334;13.528;2023-03-14T01:14:00;0.0;0.0;
78678;PMS5003;67994;59.334;13.528;2023-03-14T01:15:00;0.0;0.0;
78678;PMS5003;67994;59.334;13.528;2023-03-14T01:16:00;0.0;0.0;
78678;PMS5003;67994;59.334;13.528;2023-03-14T01:17:00;0.0;0.0;
78678;PMS5003;67994;59.334;13.528;2023-03-14T01:18:00;0.0;0.0;
78678;PMS5003;67994;59.334;13.528;2023-03-14T01:19:00;0.0;0.0;
78678;PMS5003;67994;59.334;13.528;2023-03-14T01:20:00;0.0;0.0;
78678;PMS5003;67994;59.334;13.528;2023-03-14T01:21:00;0.0;0.0;
78678;PMS5003;67994;59.334;13.528;2023-03-14T01:22:00;0.0;0.0;
78678;PMS5003;67994;59.334;13.528;2023-03-14T01:23:00;0.0;0.0;
78678;PMS5003;67994;59.334;13.528;2023-03-14T01:24:00;0.0;0.0;
78678;PMS5003;67994;59.334;13.528;2023-03-14T01:25:00;0.0;0.0;
78678;PMS5003;67994;59.334;13.528;2023-03-14T01:26:00;0.0;0.0;
78678;PMS5003;67994;59.334;13.528;2023-03-14T01:27:00;0.0;0.0;
78678;PMS5003;67994;59.334;13.528;2023-03-14T01:28:00;0.0;0.0;
78678;PMS5003;67994;59.334;13.528;2023-03-14T01:29:00;0.0;0.0;
78678;PMS5003;67994;59.334;13.528;2023-03-14T01:30:00;0.0;0.0;
78678;PMS5003;67994;59.334;13.528;2023-03-14T01:31:02;0.0;0.0;
78678;PMS5003;67994;59.334;13.528;2023-03-14T01:32:00;0.0;0.0;
78678;PMS5003;67994;59.334;13.528;2023-03-14T01:33:00;0.0;0.0;
78678;PMS5003;67994;59.334;13.528;2023-03-14T01:34:00;0.0;0.0;
78678;PMS5003;67994;59.334;13.528;2023-03-14T01:35:00;0.0;0.0;
78678;PMS5003;67994;59.334;13.528;2023-03-14T01:36:00;0.0;0.0;
78678;PMS5003;67994;59.334;13.528;2023-03-14T01:37:00;0.0;0.0;
78678;PMS5003;67994;59.334;13.528;2023-03-14T01:38:00;0.0;0.0;
78678;PMS5003;67994;59.334;13.528;2023-03-14T01:39:00;0.0;0.0;
78678;PMS5003;67994;59.334;13.528;2023-03-14T01:40:00;0.0;0.0;
78678;PMS5003;67994;59.334;13.528;2023-03-14T01:41:00;0.0;0.0;
78678;PMS5003;67994;59.334;13.528;2023-03-14T01:42:00;0.0;0.0;
78678;PMS5003;67994;59.334;13.528;2023-03-14T01:43:05;0.0;0.0;
78678;PMS5003;67994;59.334;13.528;2023-03-14T01:44:00;0.0;0.0;
78678;PMS5003;67994;59.334;13.528;2023-03-14T01:45:00;0.0;0.0;
78678;PMS5003;67994;59.334;13.528;2023-03-14T01:47:00;0.0;0.0;
78678;PMS5003;67994;59.334;13.528;2023-03-14T01:48:00;0.0;0.0;
78678;PMS5003;67994;59.334;13.528;2023-03-14T01:49:02;0.0;0.0;
78678;PMS5003;67994;59.334;13.528;2023-03-14T01:50:01;0.0;0.0;
78678;PMS5003;67994;59.334;13.528;2023-03-14T01:51:00;0.0;0.0;
78678;PMS5003;67994;59.334;13.528;2023-03-14T01:52:01;0.0;0.0;
78678;PMS5003;67994;59.334;13.528;2023-03-14T01:53:00;0.0;0.0;
78678;PMS5003;67994;59.334;13.528;2023-03-14T01:54:02;0.0;0.0;
78678;PMS5003;67994;59.334;13.528;2023-03-14T01:55:01;0.0;0.0;
78678;PMS5003;67994;59.334;13.528;2023-03-14T01:56:00;0.0;0.0;
78678;PMS5003;67994;59.334;13.528;2023-03-14T01:57:02;0.0;0.0;
78678;PMS5003;67994;59.334;13.528;2023-03-14T01:58:00;0.0;0.0;
78678;PMS5003;67994;59.334;13.528;2023-03-14T01:59:00;0.0;0.0;
78678;PMS5003;67994;59.334;13.528;2023-03-14T02:00:00;0.0;0.0;
78678;PMS5003;67994;59.334;13.528;2023-03-14T02:01:00;0.0;0.0;
78678;PMS5003;67994;59.334;13.528;2023-03-14T02:02:00;0.0;0.0;
78678;PMS5003;67994;59.334;13.528;2023-03-14T02:03:01;0.0;0.0;
78678;PMS5003;67994;59.334;13.528;2023-03-14T02:04:01;0.0;0.0;
78678;PMS5003;67994;59.334;13.528;2023-03-14T02:05:00;0.0;0.0;
78678;PMS5003;67994;59.334;13.528;2023-03-14T02:06:01;0.0;0.0;
78678;PMS5003;67994;59.334;13.528;2023-03-14T02:07:00;0.0;0.0;
78678;PMS5003;67994;59.334;13.528;2023-03-14T02:08:00;0.0;0.0;
78678;PMS5003;67994;59.334;13.528;2023-03-14T02:09:00;0.0;0.0;
78678;PMS5003;67994;59.334;13.528;2023-03-14T02:10:00;0.0;0.0;
78678;PMS5003;67994;59.334;13.528;2023-03-14T02:11:00;0.0;0.0;
78678;PMS5003;67994;59.334;13.528;2023-03-14T02:12:00;0.0;0.0;
78678;PMS5003;67994;59.334;13.528;2023-03-14T02:13:02;0.0;0.0;
78678;PMS5003;67994;59.334;13.528;2023-03-14T02:14:00;0.0;0.0;
78678;PMS5003;67994;59.334;13.528;2023-03-14T02:15:00;0.0;0.0;
78678;PMS5003;67994;59.334;13.528;2023-03-14T02:16:00;0.0;0.0;
78678;PMS5003;67994;59.334;13.528;2023-03-14T02:17:00;0.0;0.0;
78678;PMS5003;67994;59.334;13.528;2023-03-14T02:18:00;0.0;0.0;
78678;PMS5003;67994;59.334;13.528;2023-03-14T02:19:00;0.0;0.0;
78678;PMS5003;67994;59.334;13.528;2023-03-14T02:20:03;0.0;0.0;
78678;PMS5003;67994;59.334;13.528;2023-03-14T02:21:00;0.0;0.0;
78678;PMS5003;67994;59.334;13.528;2023-03-14T02:22:02;0.0;0.0;
78678;PMS5003;67994;59.334;13.528;2023-03-14T02:23:00;0.0;0.0;
78678;PMS5003;67994;59.334;13.528;2023-03-14T02:24:02;0.0;0.0;
78678;PMS5003;67994;59.334;13.528;2023-03-14T02:25:02;0.0;0.0;
78678;PMS5003;67994;59.334;13.528;2023-03-14T02:26:01;0.0;0.0;
78678;PMS5003;67994;59.334;13.528;2023-03-14T02:27:03;0.0;0.0;
78678;PMS5003;67994;59.334;13.528;2023-03-14T02:28:00;0.0;0.0;
78678;PMS5003;67994;59.334;13.528;2023-03-14T02:29:00;0.0;0.0;
78678;PMS5003;67994;59.334;13.528;2023-03-14T02:30:00;0.0;0.0;
78678;PMS5003;67994;59.334;13.528;2023-03-14T02:31:00;0.0;0.0;
78678;PMS5003;67994;59.334;13.528;2023-03-14T02:32:00;0.0;0.0;
78678;PMS5003;67994;59.334;13.528;2023-03-14T02:33:00;0.0;0.0;
78678;PMS5003;67994;59.334;13.528;2023-03-14T02:34:00;0.0;0.0;
78678;PMS5003;67994;59.334;13.528;2023-03-14T02:35:00;0.0;0.0;
78678;PMS5003;67994;59.334;13.528;2023-03-14T02:36:01;0.0;0.0;
78678;PMS5003;67994;59.334;13.528;2023-03-14T02:37:00;0.0;0.0;
78678;PMS5003;67994;59.334;13.528;2023-03-14T02:38:00;0.0;0.0;
78678;PMS5003;67994;59.334;13.528;2023-03-14T02:39:01;0.0;0.0;
78678;PMS5003;67994;59.334;13.528;2023-03-14T02:40:00;0.0;0.0;
78678;PMS5003;67994;59.334;13.528;2023-03-14T02:41:00;0.0;0.0;
78678;PMS5003;67994;59.334;13.528;2023-03-14T02:42:00;0.0;0.0;
78678;PMS5003;67994;59.334;13.528;2023-03-14T02:43:00;0.0;0.0;
78678;PMS5003;67994;59.334;13.528;2023-03-14T02:44:00;0.0;0.0;
78678;PMS5003;67994;59.334;13.528;2023-03-14T02:45:21;0.0;0.0;
78678;PMS5003;67994;59.334;13.528;2023-03-14T02:46:00;0.0;0.0;
78678;PMS5003;67994;59.334;13.528;2023-03-14T02:47:00;0.0;0.0;
78678;PMS5003;67994;59.334;13.528;2023-03-14T02:48:01;0.0;0.0;
78678;PMS5003;67994;59.334;13.528;2023-03-14T02:49:01;0.0;0.0;
78678;PMS5003;67994;59.334;13.528;2023-03-14T02:50:00;0.0;0.0;
78678;PMS5003;67994;59.334;13.528;2023-03-14T02:51:00;0.0;0.0;
78678;PMS5003;67994;59.334;13.528;2023-03-14T02:52:00;0.0;0.0;
78678;PMS5003;67994;59.334;13.528;2023-03-14T02:53:00;0.0;0.0;
78678;PMS5003;67994;59.334;13.528;2023-03-14T02:54:00;0.0;0.0;
78678;PMS5003;67994;59.334;13.528;2023-03-14T02:55:00;0.0;0.0;
78678;PMS5003;67994;59.334;13.528;2023-03-14T02:56:00;0.0;0.0;
78678;PMS5003;67994;59.334;13.528;2023-03-14T02:57:00;0.0;0.0;
78678;PMS5003;67994;59.334;13.528;2023-03-14T02:58:00;0.0;0.0;
78678;PMS5003;67994;59.334;13.528;2023-03-14T02:59:01;0.0;0.0;
78678;PMS5003;67994;59.334;13.528;2023-03-14T03:00:00;0.0;0.0;
78678;PMS5003;67994;59.334;13.528;2023-03-14T03:01:00;0.0;0.0;
78678;PMS5003;67994;59.334;13.528;2023-03-14T03:02:00;0.0;0.0;
78678;PMS5003;67994;59.334;13.528;2023-03-14T03:03:00;0.0;0.0;
78678;PMS5003;67994;59.334;13.528;2023-03-14T03:04:00;0.0;0.0;
78678;PMS5003;67994;59.334;13.528;2023-03-14T03:05:00;0.0;0.0;
78678;PMS5003;67994;59.334;13.528;2023-03-14T03:06:00;0.0;0.0;
78678;PMS5003;67994;59.334;13.528;2023-03-14T03:07:00;0.0;0.0;
78678;PMS5003;67994;59.334;13.528;2023-03-14T03:08:00;0.0;0.0;
78678;PMS5003;67994;59.334;13.528;2023-03-14T03:09:00;0.0;0.0;
78678;PMS5003;67994;59.334;13.528;2023-03-14T03:10:00;0.0;0.0;
78678;PMS5003;67994;59.334;13.528;2023-03-14T03:11:00;0.0;0.0;
78678;PMS5003;67994;59.334;13.528;2023-03-14T03:12:00;0.0;0.0;
78678;PMS5003;67994;59.334;13.528;2023-03-14T03:13:00;0.0;0.0;
78678;PMS5003;67994;59.334;13.528;2023-03-14T03:14:00;0.0;0.0;
78678;PMS5003;67994;59.334;13.528;2023-03-14T03:15:00;0.0;0.0;
78678;PMS5003;67994;59.334;13.528;2023-03-14T03:16:00;0.0;0.0;
78678;PMS5003;67994;59.334;13.528;2023-03-14T03:17:00;0.0;0.0;
78678;PMS5003;67994;59.334;13.528;2023-03-14T03:18:00;0.0;0.0;
78678;PMS5003;67994;59.334;13.528;2023-03-14T03:19:00;0.0;0.0;
78678;PMS5003;67994;59.334;13.528;2023-03-14T03:20:00;0.0;0.0;
78678;PMS5003;67994;59.334;13.528;2023-03-14T03:21:00;0.0;0.0;
78678;PMS5003;67994;59.334;13.528;2023-03-14T03:22:00;0.0;0.0;
78678;PMS5003;67994;59.334;13.528;2023-03-14T03:23:00;0.0;0.0;
78678;PMS5003;67994;59.334;13.528;2023-03-14T03:24:00;0.0;0.0;
78678;PMS5003;67994;59.334;13.528;2023-03-14T03:25:00;0.0;0.0;
78678;PMS5003;67994;59.334;13.528;2023-03-14T03:26:00;0.0;0.0;
78678;PMS5003;67994;59.334;13.528;2023-03-14T03:27:00;0.0;0.0;
78678;PMS5003;67994;59.334;13.528;2023-03-14T03:28:00;0.0;0.0;
78678;PMS5003;67994;59.334;13.528;2023-03-14T03:29:00;0.0;0.0;
78678;PMS5003;67994;59.334;13.528;2023-03-14T03:30:00;0.0;0.0;
78678;PMS5003;67994;59.334;13.528;2023-03-14T03:31:06;0.0;0.0;
78678;PMS5003;67994;59.334;13.528;2023-03-14T03:32:00;0.0;0.0;
78678;PMS5003;67994;59.334;13.528;2023-03-14T03:33:00;0.0;0.0;
78678;PMS5003;67994;59.334;13.528;2023-03-14T03:34:00;0.0;0.0;
78678;PMS5003;67994;59.334;13.528;2023-03-14T03:35:01;0.0;0.0;
78678;PMS5003;67994;59.334;13.528;2023-03-14T03:36:00;0.0;0.0;
78678;PMS5003;67994;59.334;13.528;2023-03-14T03:37:00;0.0;0.0;
78678;PMS5003;67994;59.334;13.528;2023-03-14T03:38:00;0.0;0.0;
78678;PMS5003;67994;59.334;13.528;2023-03-14T03:39:00;0.0;0.0;
78678;PMS5003;67994;59.334;13.528;2023-03-14T03:40:00;0.0;0.0;
78678;PMS5003;67994;59.334;13.528;2023-03-14T03:41:01;0.0;0.0;
78678;PMS5003;67994;59.334;13.528;2023-03-14T03:42:00;0.0;0.0;
78678;PMS5003;67994;59.334;13.528;2023-03-14T03:43:00;0.0;0.0;
78678;PMS5003;67994;59.334;13.528;2023-03-14T03:44:00;0.0;0.0;
78678;PMS5003;67994;59.334;13.528;2023-03-14T03:45:00;0.0;0.0;
78678;PMS5003;67994;59.334;13.528;2023-03-14T03:46:02;0.0;0.0;
78678;PMS5003;67994;59.334;13.528;2023-03-14T03:47:00;0.0;0.0;
78678;PMS5003;67994;59.334;13.528;2023-03-14T03:48:00;0.0;0.0;
78678;PMS5003;67994;59.334;13.528;2023-03-14T03:49:00;0.0;0.0;
78678;PMS5003;67994;59.334;13.528;2023-03-14T03:50:00;0.0;0.0;
78678;PMS5003;67994;59.334;13.528;2023-03-14T03:51:00;0.0;0.0;
78678;PMS5003;67994;59.334;13.528;2023-03-14T03:52:00;0.0;0.0;
78678;PMS5003;67994;59.334;13.528;2023-03-14T03:53:00;0.0;0.0;
78678;PMS5003;67994;59.334;13.528;2023-03-14T03:54:00;0.0;0.0;
78678;PMS5003;67994;59.334;13.528;2023-03-14T03:55:00;0.0;0.0;
78678;PMS5003;67994;59.334;13.528;2023-03-14T03:56:00;0.0;0.0;
78678;PMS5003;67994;59.334;13.528;2023-03-14T03:57:00;0.0;0.0;
78678;PMS5003;67994;59.334;13.528;2023-03-14T03:58:02;0.0;0.0;
78678;PMS5003;67994;59.334;13.528;2023-03-14T03:59:00;0.0;0.0;
78678;PMS5003;67994;59.334;13.528;2023-03-14T04:00:00;0.0;0.0;
78678;PMS5003;67994;59.334;13.528;2023-03-14T04:01:00;0.0;0.0;
78678;PMS5003;67994;59.334;13.528;2023-03-14T04:02:00;0.0;0.0;
78678;PMS5003;67994;59.334;13.528;2023-03-14T04:03:00;0.0;0.0;
78678;PMS5003;67994;59.334;13.528;2023-03-14T04:04:00;0.0;0.0;
78678;PMS5003;67994;59.334;13.528;2023-03-14T04:05:00;0.0;0.0;
78678;PMS5003;67994;59.334;13.528;2023-03-14T04:06:00;0.0;0.0;
78678;PMS5003;67994;59.334;13.528;2023-03-14T04:07:00;0.0;0.0;
78678;PMS5003;67994;59.334;13.528;2023-03-14T04:08:00;0.0;0.0;
78678;PMS5003;67994;59.334;13.528;2023-03-14T04:09:00;0.0;0.0;
78678;PMS5003;67994;59.334;13.528;2023-03-14T04:10:00;0.0;0.0;
78678;PMS5003;67994;59.334;13.528;2023-03-14T04:11:00;0.0;0.0;
78678;PMS5003;67994;59.334;13.528;2023-03-14T04:12:00;0.0;0.0;
78678;PMS5003;67994;59.334;13.528;2023-03-14T04:13:00;0.0;0.0;
78678;PMS5003;67994;59.334;13.528;2023-03-14T04:14:00;0.0;0.0;
78678;PMS5003;67994;59.334;13.528;2023-03-14T04:15:00;0.0;0.0;
78678;PMS5003;67994;59.334;13.528;2023-03-14T04:16:00;0.0;0.0;
78678;PMS5003;67994;59.334;13.528;2023-03-14T04:17:00;0.0;0.0;
78678;PMS5003;67994;59.334;13.528;2023-03-14T04:18:00;0.0;0.0;
78678;PMS5003;67994;59.334;13.528;2023-03-14T04:19:00;0.0;0.0;
78678;PMS5003;67994;59.334;13.528;2023-03-14T04:20:00;0.0;0.0;
78678;PMS5003;67994;59.334;13.528;2023-03-14T04:21:00;0.0;0.0;
78678;PMS5003;67994;59.334;13.528;2023-03-14T04:22:00;0.0;0.0;
78678;PMS5003;67994;59.334;13.528;2023-03-14T04:23:00;0.0;0.0;
78678;PMS5003;67994;59.334;13.528;2023-03-14T04:24:00;0.0;0.0;
78678;PMS5003;67994;59.334;13.528;2023-03-14T04:25:00;0.0;0.0;
78678;PMS5003;67994;59.334;13.528;2023-03-14T04:26:00;0.0;0.0;
78678;PMS5003;67994;59.334;13.528;2023-03-14T04:27:00;0.0;0.0;
78678;PMS5003;67994;59.334;13.528;2023-03-14T04:28:00;0.0;0.0;
78678;PMS5003;67994;59.334;13.528;2023-03-14T04:29:00;0.0;0.0;
78678;PMS5003;67994;59.334;13.528;2023-03-14T04:30:00;0.0;0.0;
78678;PMS5003;67994;59.334;13.528;2023-03-14T04:31:06;0.0;0.0;
78678;PMS5003;67994;59.334;13.528;2023-03-14T04:32:00;0.0;0.0;
78678;PMS5003;67994;59.334;13.528;2023-03-14T04:33:00;0.0;0.0;
78678;PMS5003;67994;59.334;13.528;2023-03-14T04:34:00;0.0;0.0;
78678;PMS5003;67994;59.334;13.528;2023-03-14T04:35:00;0.0;0.0;
78678;PMS5003;67994;59.334;13.528;2023-03-14T04:36:00;0.0;0.0;
78678;PMS5003;67994;59.334;13.528;2023-03-14T04:37:00;0.0;0.0;
78678;PMS5003;67994;59.334;13.528;2023-03-14T04:38:00;0.0;0.0;
78678;PMS5003;67994;59.334;13.528;2023-03-14T04:39:00;0.0;0.0;
78678;PMS5003;67994;59.334;13.528;2023-03-14T04:40:00;0.0;0.0;
78678;PMS5003;67994;59.334;13.528;2023-03-14T04:41:00;0.0;0.0;
78678;PMS5003;67994;59.334;13.528;2023-03-14T04:42:00;0.0;0.0;
78678;PMS5003;67994;59.334;13.528;2023-03-14T04:43:00;1.0;1.0;
78678;PMS5003;67994;59.334;13.528;2023-03-14T04:44:00;1.0;1.0;
78678;PMS5003;67994;59.334;13.528;2023-03-14T04:45:00;1.0;1.0;
78678;PMS5003;67994;59.334;13.528;2023-03-14T04:46:00;1.0;1.0;
78678;PMS5003;67994;59.334;13.528;2023-03-14T04:47:00;1.0;1.0;
78678;PMS5003;67994;59.334;13.528;2023-03-14T04:48:00;3.0;1.0;
78678;PMS5003;67994;59.334;13.528;2023-03-14T04:49:00;3.0;1.0;
78678;PMS5003;67994;59.334;13.528;2023-03-14T04:50:00;3.0;1.0;
78678;PMS5003;67994;59.334;13.528;2023-03-14T04:51:00;3.0;1.0;
78678;PMS5003;67994;59.334;13.528;2023-03-14T04:52:00;3.0;1.0;
78678;PMS5003;67994;59.334;13.528;2023-03-14T04:53:00;0.0;0.0;
78678;PMS5003;67994;59.334;13.528;2023-03-14T04:54:00;0.0;0.0;
78678;PMS5003;67994;59.334;13.528;2023-03-14T04:55:00;0.0;0.0;
78678;PMS5003;67994;59.334;13.528;2023-03-14T04:56:00;0.0;0.0;
78678;PMS5003;67994;59.334;13.528;2023-03-14T04:57:00;0.0;0.0;
78678;PMS5003;67994;59.334;13.528;2023-03-14T04:58:00;0.0;0.0;
78678;PMS5003;67994;59.334;13.528;2023-03-14T04:59:00;0.0;0.0;
78678;PMS5003;67994;59.334;13.528;2023-03-14T05:00:00;0.0;0.0;
78678;PMS5003;67994;59.334;13.528;2023-03-14T05:01:01;0.0;0.0;
78678;PMS5003;67994;59.334;13.528;2023-03-14T05:02:00;0.0;0.0;
78678;PMS5003;67994;59.334;13.528;2023-03-14T05:03:00;0.0;0.0;
78678;PMS5003;67994;59.334;13.528;2023-03-14T05:04:00;0.0;0.0;
78678;PMS5003;67994;59.334;13.528;2023-03-14T05:05:00;0.0;0.0;
78678;PMS5003;67994;59.334;13.528;2023-03-14T05:06:00;0.0;0.0;
78678;PMS5003;67994;59.334;13.528;2023-03-14T05:07:00;0.0;0.0;
78678;PMS5003;67994;59.334;13.528;2023-03-14T05:08:00;3.1;1.2;
78678;PMS5003;67994;59.334;13.528;2023-03-14T05:09:00;3.1;1.2;
78678;PMS5003;67994;59.334;13.528;2023-03-14T05:10:00;3.1;1.2;
78678;PMS5003;67994;59.334;13.528;2023-03-14T05:11:00;3.1;1.2;
78678;PMS5003;67994;59.334;13.528;2023-03-14T05:12:00;3.1;1.2;
78678;PMS5003;67994;59.334;13.528;2023-03-14T05:13:00;0.0;0.0;
78678;PMS5003;67994;59.334;13.528;2023-03-14T05:14:00;0.0;0.0;
78678;PMS5003;67994;59.334;13.528;2023-03-14T05:15:00;0.0;0.0;
78678;PMS5003;67994;59.334;13.528;2023-03-14T05:16:03;0.0;0.0;
78678;PMS5003;67994;59.334;13.528;2023-03-14T05:17:00;0.0;0.0;
78678;PMS5003;67994;59.334;13.528;2023-03-14T05:18:00;0.4;0.4;
78678;PMS5003;67994;59.334;13.528;2023-03-14T05:19:00;0.4;0.4;
78678;PMS5003;67994;59.334;13.528;2023-03-14T05:20:00;0.4;0.4;
78678;PMS5003;67994;59.334;13.528;2023-03-14T05:21:00;0.4;0.4;
78678;PMS5003;67994;59.334;13.528;2023-03-14T05:22:00;0.4;0.4;
78678;PMS5003;67994;59.334;13.528;2023-03-14T05:23:00;0.0;0.0;
78678;PMS5003;67994;59.334;13.528;2023-03-14T05:24:00;0.0;0.0;
78678;PMS5003;67994;59.334;13.528;2023-03-14T05:25:00;0.0;0.0;
78678;PMS5003;67994;59.334;13.528;2023-03-14T05:26:00;0.0;0.0;
78678;PMS5003;67994;59.334;13.528;2023-03-14T05:27:00;0.0;0.0;
78678;PMS5003;67994;59.334;13.528;2023-03-14T05:28:00;2.2;0.7;
78678;PMS5003;67994;59.334;13.528;2023-03-14T05:29:00;2.2;0.7;
78678;PMS5003;67994;59.334;13.528;2023-03-14T05:30:00;2.2;0.7;
78678;PMS5003;67994;59.334;13.528;2023-03-14T05:31:00;2.2;0.7;
78678;PMS5003;67994;59.334;13.528;2023-03-14T05:32:00;2.2;0.7;
78678;PMS5003;67994;59.334;13.528;2023-03-14T05:33:00;0.7;0.7;
78678;PMS5003;67994;59.334;13.528;2023-03-14T05:34:00;0.7;0.7;
78678;PMS5003;67994;59.334;13.528;2023-03-14T05:35:00;0.7;0.7;
78678;PMS5003;67994;59.334;13.528;2023-03-14T05:36:00;0.7;0.7;
78678;PMS5003;67994;59.334;13.528;2023-03-14T05:37:00;0.7;0.7;
78678;PMS5003;67994;59.334;13.528;2023-03-14T05:38:00;0.0;0.0;
78678;PMS5003;67994;59.334;13.528;2023-03-14T05:39:00;0.0;0.0;
78678;PMS5003;67994;59.334;13.528;2023-03-14T05:40:00;0.0;0.0;
78678;PMS5003;67994;59.334;13.528;2023-03-14T05:41:00;0.0;0.0;
78678;PMS5003;67994;59.334;13.528;2023-03-14T05:42:00;0.0;0.0;
78678;PMS5003;67994;59.334;13.528;2023-03-14T05:43:00;0.0;0.0;
78678;PMS5003;67994;59.334;13.528;2023-03-14T05:44:00;0.0;0.0;
78678;PMS5003;67994;59.334;13.528;2023-03-14T05:45:00;0.0;0.0;
78678;PMS5003;67994;59.334;13.528;2023-03-14T05:46:00;0.0;0.0;
78678;PMS5003;67994;59.334;13.528;2023-03-14T05:47:00;0.0;0.0;
78678;PMS5003;67994;59.334;13.528;2023-03-14T05:48:00;1.0;0.9;
78678;PMS5003;67994;59.334;13.528;2023-03-14T05:49:00;1.0;0.9;
78678;PMS5003;67994;59.334;13.528;2023-03-14T05:50:00;1.0;0.9;
78678;PMS5003;67994;59.334;13.528;2023-03-14T05:51:00;1.0;0.9;
78678;PMS5003;67994;59.334;13.528;2023-03-14T05:52:00;1.0;0.9;
78678;PMS5003;67994;59.334;13.528;2023-03-14T05:53:00;0.4;0.0;
78678;PMS5003;67994;59.334;13.528;2023-03-14T05:54:00;0.4;0.0;
78678;PMS5003;67994;59.334;13.528;2023-03-14T05:55:00;0.4;0.0;
78678;PMS5003;67994;59.334;13.528;2023-03-14T05:56:00;0.4;0.0;
78678;PMS5003;67994;59.334;13.528;2023-03-14T05:57:00;0.4;0.0;
78678;PMS5003;67994;59.334;13.528;2023-03-14T05:58:00;3.1;1.0;
78678;PMS5003;67994;59.334;13.528;2023-03-14T05:59:00;3.1;1.0;
78678;PMS5003;67994;59.334;13.528;2023-03-14T06:00:00;3.1;1.0;
78678;PMS5003;67994;59.334;13.528;2023-03-14T06:01:01;3.1;1.0;
78678;PMS5003;67994;59.334;13.528;2023-03-14T06:02:00;3.1;1.0;
78678;PMS5003;67994;59.334;13.528;2023-03-14T06:03:00;1.0;1.0;
78678;PMS5003;67994;59.334;13.528;2023-03-14T06:04:00;1.0;1.0;
78678;PMS5003;67994;59.334;13.528;2023-03-14T06:05:00;1.0;1.0;
78678;PMS5003;67994;59.334;13.528;2023-03-14T06:06:00;1.0;1.0;
78678;PMS5003;67994;59.334;13.528;2023-03-14T06:07:00;1.0;1.0;
78678;PMS5003;67994;59.334;13.528;2023-03-14T06:08:00;0.0;0.0;
78678;PMS5003;67994;59.334;13.528;2023-03-14T06:09:00;0.0;0.0;
78678;PMS5003;67994;59.334;13.528;2023-03-14T06:10:00;0.0;0.0;
78678;PMS5003;67994;59.334;13.528;2023-03-14T06:11:01;0.0;0.0;
78678;PMS5003;67994;59.334;13.528;2023-03-14T06:12:00;0.0;0.0;
78678;PMS5003;67994;59.334;13.528;2023-03-14T06:13:00;0.0;0.0;
78678;PMS5003;67994;59.334;13.528;2023-03-14T06:14:00;0.0;0.0;
78678;PMS5003;67994;59.334;13.528;2023-03-14T06:15:00;0.0;0.0;
78678;PMS5003;67994;59.334;13.528;2023-03-14T06:16:00;0.0;0.0;
78678;PMS5003;67994;59.334;13.528;2023-03-14T06:17:00;0.0;0.0;
78678;PMS5003;67994;59.334;13.528;2023-03-14T06:18:00;0.6;0.6;
78678;PMS5003;67994;59.334;13.528;2023-03-14T06:19:00;0.6;0.6;
78678;PMS5003;67994;59.334;13.528;2023-03-14T06:20:00;0.6;0.6;